Time;durP1;ratioP1;P1;durP2;ratioP2;P2;SDS_P1;SDS_P2;PMS_P1;PMS_P2;Temp;Humidity;BMP_temperature;BMP_pressure;BME280_temperature;BME280_humidity;BME280_pressure;Samples;Min_cycle;Max_cycle;Signal;HPM_P1;HPM_P2
2022/11/04 00:02:33;;;;;;;1.35;0.43;;;12.10;99.90;;;12.20;100.00;99708.34;5168865;28;20057;-73
2022/11/04 00:05:06;;;;;;;0.73;0.50;;;12.10;99.90;;;12.16;100.00;99709.16;5186336;28;20053;-71
2022/11/04 00:13:13;;;;;;;0.50;0.40;;;12.00;99.90;;;12.09;100.00;99715.16;5185340;28;20054;-73
2022/11/04 00:18:37;;;;;;;0.30;0.30;;;12.00;99.90;;;12.08;100.00;99729.09;5167867;28;20096;-74
2022/11/04 00:29:38;;;;;;;0.50;0.50;;;11.90;99.90;;;12.03;100.00;99740.34;5167765;28;20107;-74
2022/11/04 00:35:01;;;;;;;0.30;0.30;;;11.90;99.90;;;12.02;100.00;99744.69;5168212;28;20041;-73
2022/11/04 00:37:37;;;;;;;0.55;0.40;;;11.90;99.90;;;12.03;100.00;99753.41;5185652;28;20038;-73
2022/11/04 00:40:12;;;;;;;0.40;0.40;;;11.90;99.90;;;12.02;100.00;99754.25;5185047;28;20046;-73
2022/11/04 00:42:46;;;;;;;0.65;0.50;;;11.90;99.90;;;11.99;100.00;99747.25;5185319;28;20060;-72
2022/11/04 00:45:18;;;;;;;0.50;0.50;;;11.90;99.90;;;11.96;100.00;99747.22;5185086;28;20104;-73
2022/11/04 00:47:50;;;;;;;0.40;0.40;;;11.90;99.90;;;11.94;100.00;99762.88;5185445;28;20054;-74
2022/11/04 00:50:23;;;;;;;0.50;0.50;;;11.90;99.90;;;11.94;100.00;99785.50;5185167;28;20046;-73
2022/11/04 00:52:59;;;;;;;1.00;0.40;;;11.80;99.90;;;11.93;100.00;99787.25;5167635;28;20049;-72
2022/11/04 00:55:31;;;;;;;0.80;0.80;;;11.80;99.90;;;11.95;100.00;99788.13;5185437;28;20473;-73
2022/11/04 00:58:03;;;;;;;1.85;0.70;;;11.80;99.90;;;11.95;100.00;99789.88;5184991;28;20045;-72
2022/11/04 01:00:35;;;;;;;0.45;0.43;;;11.90;99.90;;;11.96;100.00;99796.84;5185170;28;20049;-73
2022/11/04 01:03:07;;;;;;;0.95;0.50;;;11.80;99.90;;;11.96;100.00;99796.84;5167448;28;20049;-73
2022/11/04 01:05:42;;;;;;;0.40;0.40;;;11.90;99.90;;;11.97;100.00;99797.72;5184382;28;20135;-73
2022/11/04 01:08:14;;;;;;;0.43;0.35;;;11.80;99.90;;;11.96;100.00;99789.00;5184469;28;20502;-73
2022/11/04 01:10:46;;;;;;;1.02;0.93;;;11.90;99.90;;;11.98;100.00;99802.06;5166796;28;20049;-73
2022/11/04 01:13:18;;;;;;;0.68;0.40;;;11.90;99.90;;;11.96;100.00;99796.84;5184763;28;20499;-74
2022/11/04 01:15:51;;;;;;;0.60;0.50;;;11.90;99.90;;;11.95;100.00;99797.69;5184887;28;20077;-72
2022/11/04 01:18:23;;;;;;;0.40;0.40;;;11.90;99.90;;;11.90;100.00;99808.06;5184170;28;20041;-73
2022/11/04 01:21:01;;;;;;;0.60;0.50;;;11.80;99.90;;;11.83;100.00;99814.06;5184832;28;20054;-73
2022/11/04 01:23:35;;;;;;;0.90;0.57;;;11.80;99.90;;;11.80;100.00;99823.56;5167198;28;20502;-73
2022/11/04 01:26:07;;;;;;;0.70;0.60;;;11.70;99.90;;;11.75;100.00;99812.19;5184825;28;20054;-73
2022/11/04 01:28:40;;;;;;;0.60;0.52;;;11.70;99.90;;;11.70;100.00;99827.78;5184030;28;20518;-72
2022/11/04 01:31:15;;;;;;;0.75;0.50;;;11.60;99.90;;;11.66;100.00;99829.44;5184719;28;20065;-73
2022/11/04 01:33:48;;;;;;;0.60;0.60;;;11.60;99.90;;;11.64;100.00;99840.72;5167010;28;20050;-74
2022/11/04 01:36:22;;;;;;;1.40;0.77;;;11.50;99.90;;;11.60;100.00;99839.78;5184235;28;20057;-73
2022/11/04 01:38:56;;;;;;;0.40;0.40;;;11.50;99.90;;;11.57;100.00;99844.97;5166129;28;20042;-73
2022/11/04 01:41:30;;;;;;;1.05;0.57;;;11.50;99.90;;;11.53;100.00;99845.78;5184349;28;20426;-73
2022/11/04 01:44:10;;;;;;;0.80;0.60;;;11.50;99.90;;;11.51;100.00;99850.09;5184057;28;20052;-72
2022/11/04 01:46:47;;;;;;;1.45;0.70;;;11.50;99.90;;;11.48;100.00;99844.84;5181936;28;20049;-73
2022/11/04 01:49:26;;;;;;;0.85;0.50;;;11.40;99.90;;;11.43;100.00;99850.84;5183812;28;20053;-73
2022/11/04 01:52:04;;;;;;;0.50;0.50;;;11.40;99.90;;;11.37;100.00;99843.78;5184085;28;20129;-73
2022/11/04 01:54:37;;;;;;;0.75;0.40;;;11.40;99.90;;;11.32;100.00;99848.03;5166866;28;20069;-73
2022/11/04 01:57:16;;;;;;;1.00;0.60;;;11.30;99.90;;;11.25;100.00;99846.19;5184178;28;20046;-73
2022/11/04 01:59:48;;;;;;;1.17;0.70;;;11.20;99.90;;;11.19;100.00;99840.88;5183900;28;20073;-72
2022/11/04 02:02:20;;;;;;;0.60;0.60;;;11.20;99.90;;;11.14;100.00;99844.25;5183663;28;20065;-73
2022/11/04 02:04:52;;;;;;;0.80;0.60;;;11.10;99.90;;;11.11;100.00;99849.44;5184383;28;20507;-72
2022/11/04 02:07:26;;;;;;;1.20;0.80;;;11.10;99.90;;;11.06;100.00;99835.44;5183877;28;20503;-72
2022/11/04 02:09:58;;;;;;;0.82;0.65;;;11.00;99.90;;;11.03;100.00;99839.72;5183612;28;20088;-73
2022/11/04 02:15:30;;;;;;;0.98;0.70;;;10.90;99.90;;;10.95;100.00;99836.97;5183871;28;20045;-72
2022/11/04 02:18:32;;;;;;;0.80;0.55;;;10.90;99.90;;;10.92;100.00;99826.50;5183235;28;20042;-72
2022/11/04 02:21:34;;;;;;;0.40;0.40;;;10.90;99.90;;;10.88;100.00;99827.28;5183787;28;20517;-73
2022/11/04 02:24:31;;;;;;;0.80;0.63;;;10.80;99.90;;;10.86;100.00;99832.47;5188263;28;20081;-73
2022/11/04 02:27:30;;;;;;;1.00;0.65;;;10.80;99.90;;;10.85;100.00;99835.06;5170430;28;20042;-72
2022/11/04 02:30:08;;;;;;;0.73;0.60;;;10.80;99.90;;;10.84;100.00;99833.31;5189997;28;20141;-73
2022/11/04 02:33:19;;;;;;;0.77;0.60;;;10.80;99.90;;;10.84;100.00;99835.91;5208257;28;20041;-73
2022/11/04 02:36:02;;;;;;;0.70;0.63;;;10.80;99.90;;;10.83;100.00;99836.75;5208371;28;20041;-72
2022/11/04 02:38:44;;;;;;;0.63;0.40;;;10.80;99.90;;;10.82;100.00;99835.88;5207830;28;20041;-74
2022/11/04 02:41:32;;;;;;;0.93;0.70;;;10.80;99.90;;;10.79;100.00;99830.59;5208432;28;20069;-72
2022/11/04 02:44:16;;;;;;;0.55;0.50;;;10.80;99.90;;;10.77;100.00;99827.09;5208001;28;20077;-73
2022/11/04 02:46:56;;;;;;;0.45;0.45;;;10.70;99.90;;;10.76;100.00;99829.69;5208482;28;20077;-72
2022/11/04 02:49:34;;;;;;;0.85;0.40;;;10.70;99.90;;;10.74;100.00;99819.19;5190050;28;20073;-73
2022/11/04 02:52:10;;;;;;;0.40;0.40;;;10.70;99.90;;;10.70;100.00;99826.97;5207592;28;20048;-73
2022/11/04 02:54:48;;;;;;;1.30;0.52;;;10.70;99.90;;;10.68;100.00;99816.47;5207908;28;20045;-72
2022/11/04 02:57:25;;;;;;;1.35;0.50;;;10.60;99.90;;;10.68;100.00;99819.09;5207863;28;20053;-72
2022/11/04 03:00:03;;;;;;;1.08;0.40;;;10.70;99.90;;;10.68;100.00;99826.03;5207262;28;20434;-72
2022/11/04 03:02:42;;;;;;;0.52;0.52;;;10.70;99.90;;;10.67;100.00;99824.28;5207399;28;20049;-72
2022/11/04 03:05:18;;;;;;;1.65;0.60;;;10.60;99.90;;;10.66;100.00;99827.75;5207987;28;20052;-72
2022/11/04 03:07:54;;;;;;;0.50;0.50;;;10.60;99.90;;;10.64;100.00;99826.84;5208122;28;20045;-73
2022/11/04 03:10:33;;;;;;;0.43;0.40;;;10.60;99.90;;;10.62;100.00;99826.78;5207443;28;20127;-72
2022/11/04 03:13:12;;;;;;;0.47;0.47;;;10.60;99.90;;;10.61;100.00;99830.25;5207900;28;20038;-75
2022/11/04 03:15:51;;;;;;;1.98;0.50;;;10.60;99.90;;;10.61;100.00;99825.03;5207655;28;20045;-72
2022/11/04 03:18:34;;;;;;;1.70;0.60;;;10.60;99.90;;;10.62;100.00;99823.31;5207278;28;20048;-72
2022/11/04 03:21:10;;;;;;;1.65;0.82;;;10.60;99.90;;;10.63;100.00;99823.34;5207799;28;20120;-72
2022/11/04 03:23:42;;;;;;;2.85;0.60;;;10.60;99.90;;;10.62;100.00;99810.28;5207602;28;20037;-72
2022/11/04 03:26:32;;;;;;;3.80;0.80;;;10.60;99.90;;;10.63;100.00;99822.44;5207600;28;20517;-72
2022/11/04 03:29:17;;;;;;;1.63;0.70;;;10.60;99.90;;;10.62;100.00;99815.50;5196347;28;20057;-72
2022/11/04 03:32:02;;;;;;;0.50;0.50;;;10.60;99.90;;;10.61;100.00;99812.00;5177980;28;20132;-73
2022/11/04 03:34:37;;;;;;;2.78;0.50;;;10.60;99.90;;;10.59;100.00;99812.00;5181851;28;20042;-72
2022/11/04 03:37:10;;;;;;;;;;;10.60;99.90;;;10.59;100.00;99809.38;5187966;28;20406;-72
2022/11/04 03:39:42;;;;;;;2.63;0.63;;;10.60;99.90;;;10.59;100.00;99811.09;5168892;28;19922;-72
2022/11/04 03:42:21;;;;;;;1.67;0.60;;;10.60;99.90;;;10.59;100.00;99812.00;5185615;28;20077;-72
2022/11/04 03:44:55;;;;;;;1.88;0.60;;;10.60;99.90;;;10.60;100.00;99818.94;5186152;28;20045;-73
2022/11/04 03:47:30;;;;;;;2.35;0.85;;;10.60;99.90;;;10.62;100.00;99818.09;5186805;28;20038;-72
2022/11/04 03:50:09;;;;;;;2.15;0.60;;;10.60;99.90;;;10.63;100.00;99828.56;5186170;28;20046;-73
2022/11/04 03:52:41;;;;;;;2.00;0.70;;;10.60;99.90;;;10.62;100.00;99825.91;5186551;28;20418;-71
2022/11/04 03:55:13;;;;;;;1.02;0.85;;;10.60;99.90;;;10.68;100.00;99826.03;5186775;28;20407;-71
2022/11/04 03:57:52;;;;;;;4.13;1.00;;;10.70;99.90;;;10.65;100.00;99820.78;5186580;28;20046;-72
2022/11/04 04:00:26;;;;;;;1.55;0.60;;;10.70;99.90;;;10.64;100.00;99813.81;5185663;28;20056;-71
2022/11/04 04:03:07;;;;;;;1.95;0.70;;;10.70;99.90;;;10.60;100.00;99805.91;5186393;28;20411;-72
2022/11/04 04:05:48;;;;;;;1.08;0.70;;;10.60;99.90;;;10.56;100.00;99806.72;5186373;28;20499;-72
2022/11/04 04:08:34;;;;;;;2.30;0.60;;;10.60;99.90;;;10.53;100.00;99798.84;5185756;28;20041;-72
2022/11/04 04:11:16;;;;;;;3.45;0.80;;;10.60;99.90;;;10.51;100.00;99794.47;5186013;28;20056;-72
2022/11/04 04:13:54;;;;;;;0.90;0.60;;;10.60;99.90;;;10.49;100.00;99791.78;5173453;28;20060;-72
2022/11/04 04:16:33;;;;;;;0.70;0.50;;;10.50;99.90;;;10.47;100.00;99806.53;5184985;28;20062;-71
2022/11/04 04:19:10;;;;;;;2.15;0.50;;;10.50;99.90;;;10.45;100.00;99803.03;5184315;28;20045;-73
2022/11/04 04:21:51;;;;;;;1.05;0.57;;;10.50;99.90;;;10.42;100.00;99802.94;5186037;28;20052;-72
2022/11/04 04:27:31;;;;;;;0.45;0.45;;;10.40;99.90;;;10.32;100.00;99814.06;5186141;28;20041;-72
2022/11/04 04:30:07;;;;;;;0.40;0.40;;;10.30;99.90;;;10.29;100.00;99825.28;5185354;28;20041;-72
2022/11/04 04:32:44;;;;;;;1.20;0.52;;;10.30;99.90;;;10.26;100.00;99822.63;5185798;28;20045;-72
2022/11/04 04:46:53;;;;;;;1.10;0.50;;;10.10;99.90;;;10.03;100.00;99839.44;5206142;28;20494;-72
2022/11/04 04:49:33;;;;;;;1.70;0.80;;;10.10;99.90;;;9.98;100.00;99835.88;5205595;28;20045;-73
2022/11/04 04:52:08;;;;;;;0.57;0.57;;;10.00;99.90;;;9.94;100.00;99840.13;5186630;28;20049;-72
2022/11/04 04:54:41;;;;;;;1.48;0.55;;;10.00;99.90;;;9.92;100.00;99843.56;5205773;28;20067;-72
2022/11/04 04:57:13;;;;;;;2.72;0.80;;;9.90;99.90;;;9.88;100.00;99845.19;5205541;28;20045;-72
2022/11/04 04:59:45;;;;;;;1.00;0.60;;;9.90;99.90;;;9.82;100.00;99845.06;5212300;28;20125;-73
2022/11/04 05:02:17;;;;;;;1.65;0.60;;;9.80;99.90;;;9.74;100.00;99837.06;5187745;28;20049;-72
2022/11/04 05:04:50;;;;;;;1.20;0.63;;;9.80;99.90;;;9.67;100.00;99835.19;5205755;28;20050;-73
2022/11/04 05:07:22;;;;;;;2.10;0.70;;;9.70;99.90;;;9.62;100.00;99830.72;5205501;28;20041;-73
2022/11/04 05:09:55;;;;;;;1.00;0.57;;;9.70;99.90;;;9.59;100.00;99841.06;5187320;28;20049;-72
2022/11/04 05:13:24;;;;;;;0.50;0.50;;;9.60;99.90;;;9.58;100.00;99845.34;5205388;28;20151;-73
2022/11/04 05:15:20;;;;;;;0.93;0.65;;;9.60;99.90;;;9.53;100.00;99836.59;5187657;28;20048;-72
2022/11/04 05:17:55;;;;;;;0.88;0.60;;;9.60;99.90;;;9.49;100.00;99839.94;5204980;28;20069;-72
2022/11/04 05:20:29;;;;;;;4.63;0.80;;;9.50;99.90;;;9.42;100.00;99841.53;5205348;28;20076;-72
2022/11/04 05:23:01;;;;;;;3.03;0.80;;;9.50;99.90;;;9.38;100.00;99836.19;5205295;28;20060;-72
2022/11/04 05:25:34;;;;;;;4.60;1.13;;;9.40;99.90;;;9.34;100.00;99837.88;5187499;28;20055;-72
2022/11/04 05:28:08;;;;;;;2.70;0.98;;;9.40;99.90;;;9.31;100.00;99845.56;5187031;28;20045;-72
2022/11/04 05:30:40;;;;;;;1.58;1.13;;;9.40;99.90;;;9.31;100.00;99840.38;5205270;28;20060;-73
2022/11/04 05:33:12;;;;;;;1.45;0.90;;;9.40;99.90;;;9.32;100.00;99839.53;5205078;28;20509;-72
2022/11/04 05:35:44;;;;;;;1.67;0.90;;;9.40;99.90;;;9.34;100.00;99832.66;5205035;28;20574;-72
2022/11/04 05:38:16;;;;;;;3.40;0.90;;;9.40;99.90;;;9.34;100.00;99832.66;5187012;28;20044;-72
2022/11/04 05:40:50;;;;;;;2.88;0.93;;;9.40;99.90;;;9.35;100.00;99826.63;5204831;28;20048;-72
2022/11/04 05:43:22;;;;;;;0.98;0.82;;;9.40;99.90;;;9.32;100.00;99828.25;5204570;28;20051;-72
2022/11/04 05:45:54;;;;;;;0.70;0.70;;;9.40;99.90;;;9.29;100.00;99825.59;5186426;28;20048;-72
2022/11/04 05:48:26;;;;;;;1.95;0.60;;;9.30;99.90;;;9.25;100.00;99830.69;5186437;28;20059;-73
2022/11/04 05:50:58;;;;;;;1.27;0.73;;;9.30;99.90;;;9.23;100.00;99836.72;5191789;28;20738;-73
2022/11/04 05:53:31;;;;;;;3.42;1.55;;;9.30;99.90;;;9.22;100.00;99834.97;5206231;28;20052;-72
2022/11/04 05:56:05;;;;;;;3.33;1.35;;;9.30;99.90;;;9.25;100.00;99835.03;5187495;28;20064;-73
2022/11/04 05:58:37;;;;;;;5.80;2.50;;;9.30;99.90;;;9.27;100.00;99838.56;5188571;28;20046;-72
2022/11/04 06:01:23;;;;;;;4.35;1.70;;;9.30;99.90;;;9.26;100.00;99847.22;5187944;28;20502;-73
2022/11/04 06:03:55;;;;;;;3.20;1.80;;;9.30;99.90;;;9.28;100.00;99845.50;5187712;28;20053;-72
2022/11/04 06:06:30;;;;;;;5.35;2.28;;;9.30;99.90;;;9.32;100.00;99851.66;5186794;28;20041;-72
2022/11/04 06:09:03;;;;;;;3.88;1.88;;;9.40;99.90;;;9.34;100.00;99852.59;5187487;28;20409;-73
2022/11/04 06:11:38;;;;;;;3.65;1.85;;;9.40;99.90;;;9.31;100.00;99853.38;5205785;28;20041;-73
2022/11/04 06:14:10;;;;;;;1.58;1.10;;;9.40;99.90;;;9.25;100.00;99866.22;5213895;28;20565;-72
2022/11/04 06:16:42;;;;;;;2.72;1.25;;;9.30;99.90;;;9.22;100.00;99876.56;5206885;28;20498;-72
2022/11/04 06:19:15;;;;;;;1.45;0.77;;;9.30;99.90;;;9.20;100.00;99879.13;5214700;28;20076;-72
2022/11/04 06:21:47;;;;;;;1.40;0.73;;;9.30;99.90;;;9.17;100.00;99876.44;5208059;28;20574;-72
2022/11/04 06:24:19;;;;;;;1.17;1.00;;;9.20;99.90;;;9.18;100.00;99879.91;5218450;28;20037;-72
2022/11/04 06:26:53;;;;;;;2.10;0.95;;;9.20;99.90;;;9.19;100.00;99881.66;5225589;28;20049;-72
2022/11/04 06:29:25;;;;;;;4.05;2.00;;;9.20;99.90;;;9.17;100.00;99871.22;5225030;28;20041;-72
2022/11/04 06:31:57;;;;;;;2.45;1.60;;;9.20;99.90;;;9.18;100.00;99878.19;5187910;28;20413;-72
2022/11/04 06:34:29;;;;;;;2.05;1.00;;;9.20;99.90;;;9.17;100.00;99880.75;5202334;28;20124;-72
2022/11/04 06:37:01;;;;;;;1.90;0.85;;;9.20;99.90;;;9.16;100.00;99894.59;5187149;28;20056;-73
2022/11/04 06:39:33;;;;;;;2.13;0.70;;;9.20;99.90;;;9.13;100.00;99898.03;5185820;28;20041;-73
2022/11/04 06:42:07;;;;;;;2.47;1.05;;;9.20;99.90;;;9.12;100.00;99895.34;5201998;28;20052;-72
2022/11/04 06:44:39;;;;;;;2.42;1.23;;;9.20;99.90;;;9.10;100.00;99894.44;5204414;28;20446;-72
2022/11/04 06:47:11;;;;;;;2.60;0.90;;;9.20;99.90;;;9.09;100.00;99890.97;5187082;28;20052;-72
2022/11/04 06:49:43;;;;;;;3.25;1.15;;;9.20;99.90;;;9.10;100.00;99902.25;5202735;28;20044;-72
2022/11/04 06:52:15;;;;;;;4.03;1.65;;;9.20;99.90;;;9.13;100.00;99912.75;5186996;28;20049;-73
2022/11/04 06:54:47;;;;;;;4.10;1.92;;;9.20;99.90;;;9.16;100.00;99924.09;5187080;28;20099;-74
2022/11/04 06:57:21;;;;;;;6.03;2.30;;;9.20;99.90;;;9.20;100.00;99925.94;5204608;28;20046;-73
2022/11/04 06:59:53;;;;;;;9.52;3.22;;;9.30;99.90;;;9.19;100.00;99928.47;5204734;28;20080;-72
2022/11/04 07:02:25;;;;;;;11.38;3.80;;;9.30;99.90;;;9.21;100.00;99921.63;5186738;28;20103;-72
2022/11/04 07:04:57;;;;;;;5.75;2.38;;;9.30;99.90;;;9.21;100.00;99932.00;5204016;28;20410;-58
2022/11/04 07:07:29;;;;;;;8.50;3.20;;;9.30;99.90;;;9.25;100.00;99933.84;5203854;28;20088;-58
2022/11/04 07:10:02;;;;;;;5.68;2.38;;;9.40;99.90;;;9.28;100.00;99928.72;5206816;28;20064;-57
2022/11/04 07:12:35;;;;;;;6.25;2.60;;;9.40;99.90;;;9.34;100.00;99938.41;5207832;28;20042;-57
2022/11/04 07:15:08;;;;;;;4.75;1.90;;;9.40;99.90;;;9.38;100.00;99943.72;5207560;28;20045;-57
2022/11/04 07:17:40;;;;;;;5.40;2.05;;;9.50;99.90;;;9.44;100.00;99937.78;5207555;28;20045;-56
2022/11/04 07:20:13;;;;;;;2.85;1.60;;;9.50;99.90;;;9.51;100.00;99945.78;5207354;28;20045;-58
2022/11/04 07:22:45;;;;;;;4.03;2.35;;;9.60;99.90;;;9.59;100.00;99955.53;5207649;28;20056;-58
2022/11/04 07:25:17;;;;;;;1.90;1.30;;;9.60;99.90;;;9.66;100.00;99957.44;5207291;28;20045;-56
2022/11/04 07:27:51;;;;;;;1.25;1.13;;;9.70;99.90;;;9.69;100.00;99967.91;5196809;28;20401;-56
2022/11/04 07:30:23;;;;;;;4.20;1.42;;;9.80;99.90;;;9.72;100.00;99976.69;5207739;28;20124;-56
2022/11/04 07:32:55;;;;;;;4.40;2.20;;;9.80;99.90;;;9.74;100.00;99976.72;5207605;28;20052;-56
2022/11/04 07:35:27;;;;;;;6.97;2.90;;;9.80;99.90;;;9.72;100.00;99984.50;5206560;28;20053;-56
2022/11/04 07:37:59;;;;;;;4.95;2.28;;;9.80;99.90;;;9.71;100.00;99984.44;5202460;28;20085;-56
2022/11/04 07:40:33;;;;;;;4.00;2.00;;;9.80;99.90;;;9.75;100.00;99986.28;5206814;28;20068;-56
2022/11/04 07:43:06;;;;;;;2.92;1.95;;;9.80;99.90;;;9.83;100.00;99981.28;5206320;28;20116;-56
2022/11/04 07:45:43;;;;;;;3.35;2.10;;;9.90;99.90;;;9.88;100.00;99975.34;5189326;28;20049;-56
2022/11/04 07:48:15;;;;;;;3.40;2.05;;;9.90;99.90;;;9.94;100.00;99980.72;5206727;28;20045;-56
2022/11/04 07:50:47;;;;;;;3.38;1.83;;;10.00;99.90;;;10.01;100.00;99980.00;5206507;28;20061;-56
2022/11/04 07:53:19;;;;;;;2.03;1.73;;;10.00;99.90;;;10.06;100.00;99981.00;5206302;28;20521;-58
2022/11/04 07:55:50;;;;;;;3.33;1.63;;;10.10;99.90;;;10.11;100.00;99985.47;5206078;28;20461;-57
2022/11/04 07:58:25;;;;;;;2.30;1.23;;;10.10;99.90;;;10.14;100.00;99977.69;5205857;28;20045;-57
2022/11/04 08:01:00;;;;;;;2.42;1.10;;;10.10;99.90;;;10.16;100.00;99981.22;5206569;28;20061;-56
2022/11/04 08:03:34;;;;;;;2.05;0.90;;;10.20;99.90;;;10.18;100.00;99977.81;5206060;28;20041;-56
2022/11/04 08:06:10;;;;;;;3.38;1.35;;;10.20;99.90;;;10.23;100.00;99977.94;5206199;28;20452;-57
2022/11/04 08:08:42;;;;;;;2.38;1.00;;;10.30;99.90;;;10.29;100.00;99978.06;5205744;28;20045;-57
2022/11/04 08:11:19;;;;;;;3.03;1.02;;;10.30;99.90;;;10.32;100.00;99988.59;5189794;28;20120;-56
2022/11/04 08:13:52;;;;;;;2.35;1.42;;;10.30;99.90;;;10.35;100.00;99986.03;5187852;28;20414;-57
2022/11/04 08:16:25;;;;;;;2.50;1.10;;;10.40;99.90;;;10.41;100.00;99988.78;5205531;28;20092;-57
2022/11/04 08:19:00;;;;;;;1.55;0.80;;;10.40;99.90;;;10.46;100.00;99997.59;5205086;28;20041;-57
2022/11/04 08:21:34;;;;;;;;;;;10.40;99.90;;;10.50;100.00;99986.41;5205841;28;20049;-56
2022/11/04 08:24:06;;;;;;;2.33;1.02;;;10.50;99.90;;;10.57;100.00;99996.09;5206363;28;20275;-56
2022/11/04 08:26:38;;;;;;;3.13;1.17;;;10.50;99.90;;;10.64;100.00;99985.81;5205783;28;20076;-56
2022/11/04 08:29:12;;;;;;;2.22;1.30;;;10.60;99.90;;;10.73;100.00;99996.44;5206021;28;20516;-56
2022/11/04 08:31:44;;;;;;;2.80;1.00;;;10.70;99.90;;;10.82;100.00;99991.41;5206073;28;20045;-56
2022/11/04 08:34:17;;;;;;;1.27;1.02;;;10.80;99.90;;;10.90;100.00;99995.06;5205618;28;20049;-57
2022/11/04 08:36:51;;;;;;;3.20;1.17;;;10.80;99.90;;;11.09;100.00;100001.53;5205901;28;20429;-57
2022/11/04 08:39:24;;;;;;;1.25;0.82;;;11.10;99.90;;;11.17;100.00;100004.31;5205623;28;20037;-57
2022/11/04 08:41:56;;;;;;;3.08;1.00;;;11.10;99.90;;;11.20;100.00;100002.59;5205712;28;20049;-57
2022/11/04 08:44:30;;;;;;;1.08;0.70;;;11.20;99.90;;;11.26;100.00;99999.25;5205948;28;20042;-57
2022/11/04 08:47:04;;;;;;;2.15;0.95;;;11.30;99.90;;;11.26;100.00;100001.84;5206332;28;20051;-57
2022/11/04 08:49:38;;;;;;;1.73;1.05;;;11.30;99.90;;;11.27;100.00;100001.00;5187556;28;20852;-56
2022/11/04 08:52:10;;;;;;;2.80;1.05;;;11.30;99.90;;;11.24;100.00;100000.97;5205120;28;20502;-56
2022/11/04 08:54:43;;;;;;;1.30;0.90;;;11.20;99.90;;;11.22;100.00;100010.50;5205057;28;20049;-57
2022/11/04 08:57:15;;;;;;;1.52;1.00;;;11.30;99.90;;;11.21;100.00;100011.31;5205513;28;20049;-56
2022/11/04 08:59:49;;;;;;;2.45;1.10;;;11.30;99.90;;;11.26;100.00;100009.69;5186466;28;20052;-56
2022/11/04 09:02:21;;;;;;;2.70;1.13;;;11.20;99.90;;;11.44;100.00;100003.94;5205267;28;20041;-55
2022/11/04 09:04:53;;;;;;;4.38;1.27;;;11.40;99.90;;;11.73;100.00;99997.50;5203238;28;20048;-56
2022/11/04 09:07:25;;;;;;;2.70;1.20;;;11.60;99.90;;;11.99;100.00;99995.38;5200706;28;20075;-57
2022/11/04 09:09:57;;;;;;;2.78;1.27;;;11.80;99.90;;;12.22;100.00;99993.13;5200970;28;20501;-57
2022/11/04 09:12:29;;;;;;;4.25;1.80;;;12.00;99.90;;;12.51;100.00;99996.16;5205354;28;20055;-57
2022/11/04 09:15:03;;;;;;;3.15;1.52;;;12.30;99.90;;;12.84;100.00;100000.09;5205177;28;20061;-57
2022/11/04 09:17:35;;;;;;;2.70;1.20;;;12.50;99.90;;;13.17;100.00;99995.31;5204163;28;20046;-56
2022/11/04 09:20:09;;;;;;;2.95;1.13;;;12.80;99.90;;;13.42;100.00;99995.59;5204973;28;20045;-57
2022/11/04 09:22:41;;;;;;;2.50;0.80;;;13.10;99.90;;;13.34;100.00;99992.88;5205162;28;20045;-58
2022/11/04 09:25:13;;;;;;;3.90;1.00;;;13.10;99.90;;;13.25;100.00;100000.66;5205296;28;20411;-56
2022/11/04 09:27:45;;;;;;;2.35;0.93;;;13.10;99.90;;;13.14;100.00;99997.00;5205011;28;20051;-57
2022/11/04 09:30:18;;;;;;;4.57;1.25;;;13.00;99.90;;;13.08;100.00;100000.41;5204922;28;20060;-57
2022/11/04 09:32:50;;;;;;;5.07;1.13;;;13.00;99.90;;;13.03;100.00;99992.50;5204142;28;20041;-57
2022/11/04 09:35:23;;;;;;;1.75;1.00;;;12.90;99.90;;;13.02;100.00;99987.25;5205007;28;20550;-56
2022/11/04 09:37:55;;;;;;;1.65;0.80;;;12.90;99.90;;;13.01;100.00;99988.13;5204769;28;20041;-57
2022/11/04 09:40:27;;;;;;;3.70;0.80;;;12.80;99.90;;;12.98;100.00;99982.84;5204688;28;20053;-56
2022/11/04 09:43:27;;;;;;;1.00;0.82;;;12.80;99.90;;;12.98;100.00;99993.31;5204716;28;20522;-56
2022/11/04 09:46:03;;;;;;;2.33;0.80;;;12.80;99.90;;;12.97;100.00;100002.88;5204698;28;20044;-57
2022/11/04 09:48:40;;;;;;;5.32;1.58;;;12.80;99.90;;;12.93;100.00;100001.09;5204843;28;20069;-58
2022/11/04 09:51:14;;;;;;;1.30;0.93;;;12.70;99.90;;;12.94;100.00;100009.81;5204600;28;20064;-57
2022/11/04 09:53:50;;;;;;;4.18;1.73;;;12.70;99.90;;;12.96;100.00;100010.72;5204391;28;20498;-57
2022/11/04 09:56:25;;;;;;;2.92;1.40;;;12.80;99.90;;;12.99;100.00;100000.31;5204610;28;20050;-57
2022/11/04 09:58:57;;;;;;;5.03;2.42;;;12.80;99.90;;;13.06;100.00;100011.72;5204318;28;20120;-56
2022/11/04 10:01:38;;;;;;;7.78;3.42;;;12.80;99.90;;;13.11;100.00;100004.81;5204389;28;20048;-56
2022/11/04 10:04:26;;;;;;;8.63;3.92;;;12.90;99.90;;;13.18;100.00;100010.13;5204521;28;20409;-58
2022/11/04 10:07:12;;;;;;;6.50;3.13;;;12.90;99.90;;;13.25;100.00;100004.16;5204393;28;20402;-58
2022/11/04 10:09:58;;;;;;;6.18;2.10;;;13.00;99.90;;;13.25;100.00;100009.38;5204275;28;20034;-57
2022/11/04 10:13:03;;;;;;;4.90;2.03;;;13.10;99.90;;;13.29;100.00;100011.16;5204278;28;20506;-56
2022/11/04 10:16:08;;;;;;;5.78;2.38;;;13.10;99.90;;;13.34;100.00;100007.72;5204542;28;20045;-56
2022/11/04 10:18:55;;;;;;;3.97;1.70;;;13.10;99.90;;;13.30;100.00;100012.94;5186546;28;20405;-56
2022/11/04 10:21:41;;;;;;;4.43;1.55;;;13.20;99.90;;;13.33;100.00;100016.44;5204220;28;20087;-56
2022/11/04 10:24:20;;;;;;;3.05;1.08;;;13.20;99.90;;;13.30;100.00;100023.41;5204213;28;20056;-56
2022/11/04 10:26:56;;;;;;;3.22;1.48;;;13.20;99.90;;;13.33;100.00;100024.28;5204297;28;20490;-56
2022/11/04 10:29:35;;;;;;;4.18;1.65;;;13.20;99.90;;;13.37;100.00;100028.72;5204070;28;20045;-56
2022/11/04 10:32:18;;;;;;;4.85;1.52;;;13.20;99.90;;;13.37;100.00;100020.84;5203783;28;20040;-56
2022/11/04 10:34:57;;;;;;;5.45;1.40;;;13.20;99.90;;;13.53;100.00;100025.38;5218551;23;20882;-80
2022/11/04 10:37:30;;;;;;;2.55;1.15;;;13.40;99.90;;;14.13;100.00;100024.19;5181928;28;20050;-81
2022/11/04 10:40:21;;;;;;;5.15;1.25;;;14.00;99.90;;;14.59;100.00;100024.56;5176189;28;20050;-80
2022/11/04 10:42:54;;;;;;;3.08;0.90;;;14.50;99.90;;;14.90;100.00;100020.38;5186400;28;20080;-80
2022/11/04 10:45:38;;;;;;;3.78;1.10;;;14.90;99.90;;;15.12;100.00;100029.22;5190513;28;20108;-81
2022/11/04 10:48:19;;;;;;;2.60;1.20;;;15.10;99.90;;;15.36;100.00;100029.31;5189963;28;20050;-85
2022/11/04 10:50:56;;;;;;;3.08;1.05;;;15.40;99.90;;;15.33;100.00;100037.19;5155384;28;20149;-87
2022/11/04 10:53:31;;;;;;;2.17;0.90;;;15.30;99.90;;;15.13;100.00;100044.09;5155426;28;20073;-84
2022/11/04 10:56:10;;;;;;;1.65;0.63;;;15.10;99.90;;;14.99;100.00;100035.28;5155667;28;20093;-87
2022/11/04 10:58:47;;;;;;;3.83;0.93;;;14.90;99.90;;;14.84;100.00;100039.56;5154297;28;20038;-84
2022/11/04 11:01:26;;;;;;;1.73;0.80;;;14.80;99.90;;;14.72;100.00;100030.75;5154266;28;20197;-85
2022/11/04 11:04:00;;;;;;;2.40;1.00;;;14.60;99.90;;;14.62;100.00;100050.81;5172061;28;20089;-85
2022/11/04 11:06:35;;;;;;;2.45;0.75;;;14.50;99.90;;;14.54;100.00;100047.25;5155247;28;20148;-85
2022/11/04 11:09:15;;;;;;;6.43;1.25;;;14.40;99.90;;;14.51;100.00;100052.47;5172696;28;20097;-86
2022/11/04 11:11:49;;;;;;;2.83;0.90;;;14.30;99.90;;;14.39;100.00;100051.47;5156460;28;20047;-85
2022/11/04 11:14:33;;;;;;;;;;;14.20;99.90;;;14.33;100.00;100055.81;5155697;28;20054;-85
2022/11/04 11:17:25;;;;;;;2.47;1.02;;;14.10;99.90;;;14.39;100.00;100050.59;5159862;28;20005;-86
2022/11/04 11:20:01;;;;;;;2.17;0.80;;;14.20;99.90;;;14.58;100.00;100059.53;5191411;28;20096;-85
2022/11/04 11:22:40;;;;;;;1.70;0.60;;;14.30;99.90;;;14.81;100.00;100063.19;5174817;28;20094;-84
2022/11/04 11:25:29;;;;;;;5.25;0.75;;;14.40;99.90;;;15.07;100.00;100054.56;5175641;28;20064;-82
2022/11/04 11:28:05;;;;;;;3.15;0.75;;;14.60;99.90;;;15.37;100.00;100048.56;5192043;28;20068;-91
2022/11/04 11:30:55;;;;;;;2.72;0.75;;;14.90;99.90;;;15.73;100.00;100047.84;5198254;28;20049;-87